Essex, IL (60935)

11:56 PM CST on February 11, 2016 (GMT -0600)
Union Hill | | Change Station
CLOSE
Current Station
Personal Weather Station
Location: Union Hill, IL
Elevation: 623 ft
Nearby Weather Stations

Elev 623 ft 41.11 °N, 88.15 °W | Updated 1 minute ago

Mostly Cloudy
Mostly Cloudy
18.5 °F
Feels Like 18 °F
N
1.0
Wind Variable Wind from WNW
Gusts 11.0 mph

Today
High -- | Low -- °F
--% Chance of Precip.
Yesterday
High -- | Low -- °F
Precip. -- in
Pressure 30.28 in
Visibility 10.0 miles
Clouds Mostly Cloudy 12000 ft
Windchill 18 °F
Dew Point 14 °F
Humidity 83%
Rainfall 0.00 in
Snow Depth Not available.
6:53 AM 5:21 PM
Waxing Crescent, 17% visible
METAR KIKK 120535Z AUTO 21004KT 10SM BKN120 M08/M11 A3028 RMK AO2 T10811111
Pressure 30.28 in
Visibility 10.0 miles
Clouds Mostly Cloudy 12000 ft
Windchill 18 °F
Dew Point 14 °F
Humidity 83%
Rainfall 0.00 in
Snow Depth Not available.
6:53 AM 5:21 PM
Waxing Crescent, 17% visible
METAR KIKK 120535Z AUTO 21004KT 10SM BKN120 M08/M11 A3028 RMK AO2 T10811111

10-Day Weather Forecast

Almanac

Astronomy

Feb. 11, 2016 Rise Set
Actual Time
Civil Twilight
Nautical Twilight
Astronomical Twilight
Moon
Length of Visible Light
Length of Day
Tomorrow will be .
, % of the Moon is Illuminated

Today's Extremes

State Highs State Lows

Community

WunderPhotos

Upload Photos

1,892,269 photos uploaded!

WunderBlog® & News

Nearby

Air Quality

  Air Quality AQ Index Pollutant
Not available.

Snow Depth

Station Depth Elevation

Earthquake Activity

City Distance Mag. Time & Date
Minimum magnitude displayed is 2.5.

Coastal Water Temperatures

Place Temperature

Stations

Nearby Weather Stations

Station Location Temp. Windchill Dew Point Humidity Wind Precip. Elev Updated Type
                   

Watches & Warnings

There are currently no watches in effect.